Time;durP1;ratioP1;P1;durP2;ratioP2;P2;SDS_P1;SDS_P2;PMS_P1;PMS_P2;Temp;Humidity;BMP_temperature;BMP_pressure;BME280_temperature;BME280_humidity;BME280_pressure;Samples;Min_cycle;Max_cycle;Signal;HPM_P1;HPM_P2
2022/08/08 00:00:05;;;;;;;;;;;;;;;26.90;57.01;100085.72;7312790;19;129338;-32
2022/08/08 00:02:42;;;;;;;;;;;;;;;26.98;57.01;100103.34;7315726;19;129707;-33
2022/08/08 00:05:08;;;;;;;;;;;;;;;26.98;57.33;100091.97;7314637;19;128993;-34
2022/08/08 00:07:41;;;;;;;;;;;;;;;27.00;57.62;100100.56;7314064;19;129515;-35
2022/08/08 00:10:31;;;;;;;;;;;;;;;26.99;56.96;100101.56;7314220;19;129947;-33
2022/08/08 00:13:07;;;;;;;;;;;;;;;26.25;51.30;100096.16;7313269;19;129464;-34
2022/08/08 00:15:35;;;;;;;;;;;;;;;26.26;55.75;100090.72;7315141;19;128913;-34
2022/08/08 00:18:05;;;;;;;;;;;;;;;26.60;57.22;100099.44;7314790;19;129198;-34
2022/08/08 00:20:37;;;;;;;;;;;;;;;26.74;56.83;100106.75;7311952;19;129040;-34
2022/08/08 00:23:05;;;;;;;;;;;;;;;26.83;56.56;100099.69;7313877;19;129312;-37
2022/08/08 00:25:34;;;;;;;;;;;;;;;26.87;56.74;100091.28;7315081;19;128966;-38
2022/08/08 00:28:00;;;;;;;;;;;;;;;26.89;56.13;100094.59;7315017;19;129006;-34
2022/08/08 00:30:31;;;;;;;;;;;;;;;26.91;56.93;100097.06;7312747;19;129641;-31
2022/08/08 00:33:03;;;;;;;;;;;;;;;26.94;56.47;100092.28;7310882;19;129447;-34
2022/08/08 00:35:34;;;;;;;;;;;;;;;26.98;56.86;100099.88;7314680;19;129273;-37
2022/08/08 00:38:17;;;;;;;;;;;;;;;26.99;57.02;100096.28;7314748;19;129338;-41
2022/08/08 00:41:12;;;;;;;;;;;;;;;27.00;56.94;100100.56;7312028;19;129383;-33
2022/08/08 00:43:51;;;;;;;;;;;;;;;26.99;56.89;100098.91;7314277;19;129697;-35
2022/08/08 00:46:19;;;;;;;;;;;;;;;26.97;57.18;100100.88;7314556;19;129246;-35
2022/08/08 00:48:47;;;;;;;;;;;;;;;26.99;56.63;100109.47;7313415;19;129657;-33
2022/08/08 00:51:21;;;;;;;;;;;;;;;27.01;56.80;100104.88;7311190;19;129341;-32
2022/08/08 00:53:58;;;;;;;;;;;;;;;27.01;56.84;100102.22;7313920;19;129307;-35
2022/08/08 00:56:24;;;;;;;;;;;;;;;27.01;56.75;100102.22;7313848;19;129225;-36
2022/08/08 00:58:49;;;;;;;;;;;;;;;27.01;56.81;100096.94;7312800;19;128917;-38
2022/08/08 01:01:17;;;;;;;;;;;;;;;26.69;53.13;100103.78;7310369;19;129045;-35
2022/08/08 01:03:51;;;;;;;;;;;;;;;26.13;51.57;100106.13;7313113;19;130403;-35
2022/08/08 01:06:16;;;;;;;;;;;;;;;26.46;56.81;100107.13;7313366;19;129452;-33
2022/08/08 01:08:57;;;;;;;;;;;;;;;26.69;56.88;100102.97;7313004;19;128937;-33
2022/08/08 01:11:23;;;;;;;;;;;;;;;26.79;56.68;100099.19;7310108;19;129526;-34
2022/08/08 01:14:06;;;;;;;;;;;;;;;26.88;56.73;100103.50;7312407;19;129189;-35
2022/08/08 01:16:47;;;;;;;;;;;;;;;26.91;57.18;100097.91;7312552;19;129485;-36
2022/08/08 01:19:38;;;;;;;;;;;;;;;26.95;57.08;100101.06;7308386;19;129167;-35
2022/08/08 01:22:03;;;;;;;;;;;;;;;26.97;57.18;100092.97;7312052;19;130248;-34
2022/08/08 01:24:32;;;;;;;;;;;;;;;26.98;56.73;100097.25;7312855;19;130322;-35
2022/08/08 01:27:16;;;;;;;;;;;;;;;26.99;57.06;100098.91;7313516;19;129254;-33
2022/08/08 01:30:00;;;;;;;;;;;;;;;26.99;56.71;100096.28;7311262;19;129117;-34
2022/08/08 01:32:28;;;;;;;;;;;;;;;26.89;56.71;100086.69;7310675;19;129180;-35
2022/08/08 01:34:53;;;;;;;;;;;;;;;27.00;57.62;100103.19;7312043;19;130927;-37
2022/08/08 01:37:21;;;;;;;;;;;;;;;26.99;56.81;100094.44;7312255;19;128942;-37
2022/08/08 01:39:46;;;;;;;;;;;;;;;26.99;57.49;100106.84;7310394;19;129005;-36
2022/08/08 01:42:34;;;;;;;;;;;;;;;26.99;56.78;100105.00;7312371;19;129286;-35
2022/08/08 01:45:08;;;;;;;;;;;;;;;26.92;57.55;100098.75;7312578;19;129473;-35
2022/08/08 01:47:36;;;;;;;;;;;;;;;27.00;57.21;100105.84;7312244;19;128997;-32
2022/08/08 01:50:07;;;;;;;;;;;;;;;26.45;52.35;100094.91;7309979;19;129098;-30
2022/08/08 01:52:52;;;;;;;;;;;;;;;26.15;51.93;100105.97;7311329;19;129759;-33
2022/08/08 01:55:29;;;;;;;;;;;;;;;26.55;56.58;100098.25;7312177;19;130505;-34
2022/08/08 01:58:21;;;;;;;;;;;;;;;26.73;56.87;100099.84;7311745;19;128952;-38
2022/08/08 02:00:58;;;;;;;;;;;;;;;26.84;56.38;100102.16;7306465;19;129239;-37
2022/08/08 02:03:42;;;;;;;;;;;;;;;26.90;57.32;100092.78;7311944;19;130234;-33
2022/08/08 02:06:26;;;;;;;;;;;;;;;26.93;56.42;100101.22;7311723;19;129580;-36
2022/08/08 02:08:52;;;;;;;;;;;;;;;26.96;56.93;100093.97;7311206;19;129600;-37
2022/08/08 02:11:32;;;;;;;;;;;;;;;26.98;57.32;100097.25;7308040;19;128859;-39
2022/08/08 02:14:00;;;;;;;;;;;;;;;26.97;56.48;100096.44;7311123;19;129130;-38
2022/08/08 02:16:28;;;;;;;;;;;;;;;27.00;57.04;100105.84;7311113;19;129246;-34
2022/08/08 02:19:19;;;;;;;;;;;;;;;26.98;56.91;100099.88;7309960;19;128933;-37
2022/08/08 02:24:33;;;;;;;;;;;;;;;26.99;56.94;100105.00;7311401;19;128900;-34
2022/08/08 02:27:03;;;;;;;;;;;;;;;27.00;57.63;100106.66;7311143;19;130160;-34
2022/08/08 02:29:31;;;;;;;;;;;;;;;26.99;57.58;100112.13;7310765;19;129279;-35
2022/08/08 02:32:29;;;;;;;;;;;;;;;27.00;57.31;100116.38;7316710;19;129182;-34
2022/08/08 02:35:04;;;;;;;;;;;;;;;26.94;57.06;100102.84;7314610;19;129323;-33
2022/08/08 02:37:48;;;;;;;;;;;;;;;27.00;57.38;100117.22;7318603;19;129735;-34
2022/08/08 02:40:32;;;;;;;;;;;;;;;26.25;51.26;100115.44;7316377;19;129360;-31
2022/08/08 02:43:16;;;;;;;;;;;;;;;26.35;56.57;100116.16;7318470;19;129335;-31
2022/08/08 02:46:00;;;;;;;;;;;;;;;26.67;57.23;100115.50;7317404;19;129181;-33
2022/08/08 02:48:38;;;;;;;;;;;;;;;26.78;57.17;100105.47;7316120;19;129319;-36
2022/08/08 02:51:04;;;;;;;;;;;;;;;26.86;56.74;100102.84;7315394;19;128825;-37
2022/08/08 02:53:38;;;;;;;;;;;;;;;26.91;56.95;100110.25;7315531;19;129707;-32
2022/08/08 02:56:16;;;;;;;;;;;;;;;26.93;57.10;100109.13;7317198;19;129136;-35
2022/08/08 02:59:01;;;;;;;;;;;;;;;26.97;57.15;100106.16;7315229;19;129385;-35
2022/08/08 03:01:45;;;;;;;;;;;;;;;26.97;56.85;100111.44;7314213;19;129291;-35
2022/08/08 03:04:37;;;;;;;;;;;;;;;26.99;56.49;100120.03;7316014;19;129247;-32
2022/08/08 03:07:15;;;;;;;;;;;;;;;26.99;56.55;100120.03;7316681;19;129653;-36
2022/08/08 03:09:59;;;;;;;;;;;;;;;26.99;57.41;100120.03;7314723;19;129583;-34
2022/08/08 03:12:50;;;;;;;;;;;;;;;26.99;57.03;100123.47;7314946;19;129223;-31
2022/08/08 03:15:35;;;;;;;;;;;;;;;26.99;57.03;100126.13;7316360;19;128668;-36
2022/08/08 03:18:00;;;;;;;;;;;;;;;27.01;57.40;100131.25;7312549;19;130600;-36
2022/08/08 03:20:26;;;;;;;;;;;;;;;27.02;56.91;100119.69;7314127;19;130065;-38
2022/08/08 03:22:52;;;;;;;;;;;;;;;27.01;57.56;100125.97;7317628;19;129273;-30
2022/08/08 03:25:21;;;;;;;;;;;;;;;27.00;57.28;100122.50;7316628;19;128799;-36
2022/08/08 03:27:52;;;;;;;;;;;;;;;26.91;57.27;100108.47;7316181;19;129388;-34
2022/08/08 03:30:19;;;;;;;;;;;;;;;26.21;51.23;100124.66;7313208;19;129406;-35
2022/08/08 03:35:28;;;;;;;;;;;;;;;26.66;57.01;100127.84;7316790;19;129032;-34
2022/08/08 03:37:53;;;;;;;;;;;;;;;26.79;56.89;100130.84;7316093;19;130582;-34
2022/08/08 03:40:20;;;;;;;;;;;;;;;26.86;56.87;100131.88;7312549;19;129428;-35
2022/08/08 03:42:46;;;;;;;;;;;;;;;26.91;56.34;100134.00;7312994;19;128925;-36
2022/08/08 03:45:18;;;;;;;;;;;;;;;26.87;56.68;100117.66;7316245;19;129356;-36
2022/08/08 03:47:52;;;;;;;;;;;;;;;26.97;56.83;100132.56;7315266;19;129111;-37
2022/08/08 03:50:18;;;;;;;;;;;;;;;26.97;56.36;100132.56;7312813;19;129704;-38
2022/08/08 03:52:43;;;;;;;;;;;;;;;26.89;56.87;100130.72;7312388;19;129150;-39
2022/08/08 03:55:10;;;;;;;;;;;;;;;26.98;56.59;100140.31;7315851;19;129391;-38
2022/08/08 03:57:35;;;;;;;;;;;;;;;27.01;56.88;100139.19;7315649;19;129170;-34
2022/08/08 04:00:01;;;;;;;;;;;;;;;27.01;56.87;100144.47;7313615;19;130377;-37
2022/08/08 04:02:26;;;;;;;;;;;;;;;27.00;57.32;100148.06;7316279;19;129560;-34
2022/08/08 04:04:51;;;;;;;;;;;;;;;27.02;57.29;100146.09;7316583;19;129426;-32
2022/08/08 04:07:16;;;;;;;;;;;;;;;26.99;56.51;100141.16;7315311;19;129297;-37
2022/08/08 04:09:54;;;;;;;;;;;;;;;27.01;56.92;100149.72;7313488;19;129247;-35
2022/08/08 04:12:19;;;;;;;;;;;;;;;27.02;57.31;100146.94;7314630;19;129175;-32
2022/08/08 04:14:44;;;;;;;;;;;;;;;27.01;57.09;100149.72;7315042;19;129400;-33
2022/08/08 04:17:10;;;;;;;;;;;;;;;26.93;57.44;100142.59;7315140;19;130089;-35
2022/08/08 04:19:35;;;;;;;;;;;;;;;26.19;51.94;100152.97;7312959;19;130399;-33
2022/08/08 04:22:00;;;;;;;;;;;;;;;26.37;56.21;100156.38;7314497;19;128984;-34
2022/08/08 04:24:25;;;;;;;;;;;;;;;26.65;56.80;100159.63;7315026;19;129180;-37
2022/08/08 04:26:51;;;;;;;;;;;;;;;26.71;56.66;100146.66;7315330;19;129281;-36
2022/08/08 04:29:16;;;;;;;;;;;;;;;26.84;56.79;100160.22;7312833;19;129467;-33
2022/08/08 04:31:41;;;;;;;;;;;;;;;26.90;56.87;100164.88;7313746;19;129167;-36
2022/08/08 04:34:06;;;;;;;;;;;;;;;26.93;56.44;100166.34;7315103;19;128848;-35
2022/08/08 04:36:32;;;;;;;;;;;;;;;26.93;57.04;100169.81;7314240;19;129566;-35
2022/08/08 04:38:57;;;;;;;;;;;;;;;26.94;56.70;100171.47;7313225;19;129455;-34
2022/08/08 04:41:22;;;;;;;;;;;;;;;26.94;56.48;100174.09;7311653;19;129069;-34
2022/08/08 04:43:47;;;;;;;;;;;;;;;26.91;57.00;100168.31;7314730;19;128982;-40
2022/08/08 04:46:13;;;;;;;;;;;;;;;26.98;57.11;100186.97;7313567;19;129324;-34
2022/08/08 04:48:38;;;;;;;;;;;;;;;26.87;56.61;100165.16;7312328;19;129310;-36
2022/08/08 04:51:03;;;;;;;;;;;;;;;26.98;56.66;100184.34;7311615;19;129245;-36
2022/08/08 04:53:28;;;;;;;;;;;;;;;26.99;57.25;100180.72;7311098;19;129270;-37
2022/08/08 04:55:54;;;;;;;;;;;;;;;26.98;57.01;100182.53;7313009;19;130243;-36
2022/08/08 04:58:19;;;;;;;;;;;;;;;26.98;56.82;100187.81;7311971;19;129395;-34
2022/08/08 05:00:44;;;;;;;;;;;;;;;26.96;57.23;100178.41;7312208;19;129238;-35
2022/08/08 05:03:09;;;;;;;;;;;;;;;26.96;57.38;100184.50;7313545;19;129349;-33
2022/08/08 05:05:35;;;;;;;;;;;;;;;26.97;57.23;100190.63;7314252;19;130802;-32
2022/08/08 05:08:00;;;;;;;;;;;;;;;26.34;51.86;100190.13;7312483;19;129308;-45
2022/08/08 05:10:28;;;;;;;;;;;;;;;26.11;51.74;100191.63;7312004;19;128972;-36
2022/08/08 05:12:54;;;;;;;;;;;;;;;26.54;56.65;100194.19;7311328;19;129153;-34
2022/08/08 05:15:19;;;;;;;;;;;;;;;26.72;56.62;100197.63;7313209;19;130242;-35
2022/08/08 05:17:45;;;;;;;;;;;;;;;26.81;56.66;100200.13;7312954;19;129481;-36
2022/08/08 05:20:10;;;;;;;;;;;;;;;26.80;56.80;100190.56;7311957;19;128848;-37
2022/08/08 05:22:35;;;;;;;;;;;;;;;26.91;57.34;100202.63;7313596;19;129189;-35
2022/08/08 05:25:01;;;;;;;;;;;;;;;26.92;56.70;100199.81;7311751;19;131471;-38
2022/08/08 05:27:26;;;;;;;;;;;;;;;26.94;56.66;100199.66;7312871;19;129082;-35
2022/08/08 05:29:51;;;;;;;;;;;;;;;26.92;56.65;100189.28;7311345;19;129243;-36
2022/08/08 05:32:16;;;;;;;;;;;;;;;26.94;57.23;100197.03;7311528;19;129030;-32
2022/08/08 05:34:46;;;;;;;;;;;;;;;26.95;56.77;100203.97;7312620;19;129018;-36
2022/08/08 05:37:15;;;;;;;;;;;;;;;26.99;57.16;100209.75;7312532;19;129426;-34
2022/08/08 05:39:42;;;;;;;;;;;;;;;26.99;57.18;100202.66;7311575;19;128939;-35
2022/08/08 05:42:07;;;;;;;;;;;;;;;27.00;56.55;100204.31;7312064;19;129054;-35
2022/08/08 05:44:39;;;;;;;;;;;;;;;27.01;57.48;100207.81;7311453;19;129617;-36
2022/08/08 05:47:04;;;;;;;;;;;;;;;27.00;56.75;100206.97;7311869;19;129719;-35
2022/08/08 05:49:30;;;;;;;;;;;;;;;27.02;57.06;100209.44;7311420;19;129471;-37
2022/08/08 05:51:55;;;;;;;;;;;;;;;27.01;57.42;100208.59;7311271;19;129445;-35
2022/08/08 05:54:21;;;;;;;;;;;;;;;26.98;57.21;100211.56;7311809;19;129206;-33
2022/08/08 05:56:49;;;;;;;;;;;;;;;26.34;51.55;100209.41;7311696;19;130838;-36
2022/08/08 05:59:22;;;;;;;;;;;;;;;26.11;52.31;100212.72;7311315;19;128988;-39
2022/08/08 06:01:53;;;;;;;;;;;;;;;26.57;56.86;100214.97;7312006;19;129488;-38
2022/08/08 06:04:21;;;;;;;;;;;;;;;26.73;56.60;100210.66;7312107;19;130345;-37
2022/08/08 06:06:47;;;;;;;;;;;;;;;26.83;56.90;100210.50;7317540;19;130497;-36
2022/08/08 06:09:15;;;;;;;;;;;;;;;26.88;56.95;100210.88;7317963;19;129050;-37
2022/08/08 06:11:41;;;;;;;;;;;;;;;26.91;57.05;100214.03;7319539;19;129127;-39
2022/08/08 06:14:08;;;;;;;;;;;;;;;26.95;56.96;100217.16;7317871;19;129576;-35
2022/08/08 06:16:35;;;;;;;;;;;;;;;26.96;56.41;100210.09;7318379;19;129325;-33
2022/08/08 06:19:01;;;;;;;;;;;;;;;26.97;57.22;100212.56;7317514;19;128755;-35
2022/08/08 06:21:26;;;;;;;;;;;;;;;26.98;56.62;100218.66;7317565;19;128966;-33
2022/08/08 06:23:51;;;;;;;;;;;;;;;26.98;56.67;100218.66;7318202;19;129161;-34
2022/08/08 06:26:18;;;;;;;;;;;;;;;26.91;57.23;100206.09;7317743;19;129388;-35
2022/08/08 06:29:09;;;;;;;;;;;;;;;26.91;56.57;100216.66;7317982;19;129073;-36
2022/08/08 06:31:36;;;;;;;;;;;;;;;26.98;57.20;100223.94;7317239;19;129256;-37
2022/08/08 06:34:07;;;;;;;;;;;;;;;27.00;57.19;100221.97;7315321;19;129200;-34
2022/08/08 06:36:37;;;;;;;;;;;;;;;27.00;57.49;100224.59;7317322;19;130220;-37
2022/08/08 06:39:02;;;;;;;;;;;;;;;26.98;57.30;100229.22;7316757;19;128974;-32
2022/08/08 06:41:30;;;;;;;;;;;;;;;27.01;57.33;100228.91;7315213;19;129132;-35
2022/08/08 06:43:57;;;;;;;;;;;;;;;27.00;56.70;100235.16;7317770;19;129490;-35
2022/08/08 06:46:22;;;;;;;;;;;;;;;26.47;53.01;100230.09;7317838;19;129289;-34
2022/08/08 06:48:48;;;;;;;;;;;;;;;26.05;51.51;100213.34;7316097;19;129087;-35
2022/08/08 06:51:14;;;;;;;;;;;;;;;26.47;56.68;100230.91;7314642;19;129248;-34
2022/08/08 06:53:40;;;;;;;;;;;;;;;26.70;56.92;100233.88;7314989;19;130327;-36
2022/08/08 06:56:05;;;;;;;;;;;;;;;26.78;56.79;100226.84;7317664;19;129571;-36
2022/08/08 06:58:31;;;;;;;;;;;;;;;26.84;56.71;100228.81;7315727;19;129385;-32
2022/08/08 07:00:58;;;;;;;;;;;;;;;26.89;56.95;100226.53;7314413;19;128938;-35
2022/08/08 07:03:33;;;;;;;;;;;;;;;26.90;56.85;100225.56;7317452;19;129249;-36
2022/08/08 07:06:01;;;;;;;;;;;;;;;26.93;56.50;100233.16;7317430;19;129241;-34
2022/08/08 07:08:33;;;;;;;;;;;;;;;26.93;57.09;100238.44;7316374;19;129378;-34
2022/08/08 07:11:02;;;;;;;;;;;;;;;26.94;56.38;100226.88;7312803;19;129190;-34
2022/08/08 07:13:31;;;;;;;;;;;;;;;26.97;56.91;100227.56;7314283;19;129904;-39
2022/08/08 07:16:07;;;;;;;;;;;;;;;26.87;57.48;100217.16;7317128;19;130202;-34
2022/08/08 07:18:52;;;;;;;;;;;;;;;26.91;57.46;100221.94;7315746;19;129186;-39
2022/08/08 07:21:20;;;;;;;;;;;;;;;26.98;56.84;100231.84;7311166;19;130816;-34
2022/08/08 07:23:53;;;;;;;;;;;;;;;26.97;56.88;100228.41;7315698;19;129052;-34
2022/08/08 07:26:20;;;;;;;;;;;;;;;26.98;57.38;100226.56;7316162;19;129570;-34
2022/08/08 07:28:46;;;;;;;;;;;;;;;26.98;57.14;100224.75;7315844;19;129354;-37
2022/08/08 07:31:11;;;;;;;;;;;;;;;26.98;57.61;100229.22;7315003;19;129441;-33
2022/08/08 07:33:37;;;;;;;;;;;;;;;26.97;57.14;100222.28;7313933;19;129151;-38
2022/08/08 07:36:04;;;;;;;;;;;;;;;26.56;52.77;100218.63;7315575;19;129832;-39
2022/08/08 07:38:30;;;;;;;;;;;;;;;26.14;51.38;100217.66;7315903;19;129378;-39
2022/08/08 07:40:59;;;;;;;;;;;;;;;26.46;56.84;100229.25;7315300;19;128845;-35
2022/08/08 07:43:24;;;;;;;;;;;;;;;26.69;56.63;100219.84;7315732;19;130922;-35
2022/08/08 07:45:50;;;;;;;;;;;;;;;26.76;56.55;100220.88;7315429;19;131167;-35
2022/08/08 07:48:15;;;;;;;;;;;;;;;26.83;56.61;100218.44;7316372;19;129742;-36
2022/08/08 07:50:42;;;;;;;;;;;;;;;26.87;56.80;100228.50;7314741;19;129441;-32
2022/08/08 07:53:17;;;;;;;;;;;;;;;26.91;56.94;100224.56;7313391;19;130277;-37
2022/08/08 07:55:43;;;;;;;;;;;;;;;26.93;56.98;100229.69;7315177;19;129562;-35
2022/08/08 07:58:20;;;;;;;;;;;;;;;26.93;56.88;100234.97;7314942;19;129069;-41
2022/08/08 08:00:48;;;;;;;;;;;;;;;26.94;56.84;100226.88;7313627;19;129057;-38
2022/08/08 08:03:19;;;;;;;;;;;;;;;26.93;56.71;100230.53;7315248;19;129356;-34
2022/08/08 08:05:48;;;;;;;;;;;;;;;26.95;57.54;100225.09;7314636;19;129352;-33
2022/08/08 08:08:17;;;;;;;;;;;;;;;26.95;56.98;100225.09;7314746;19;129434;-32
2022/08/08 08:10:50;;;;;;;;;;;;;;;26.96;57.12;100234.66;7313644;19;130226;-33
2022/08/08 08:13:21;;;;;;;;;;;;;;;26.97;57.28;100227.56;7313972;19;129016;-37
2022/08/08 08:16:06;;;;;;;;;;;;;;;26.98;56.82;100229.22;7315194;19;129942;-34
2022/08/08 08:18:42;;;;;;;;;;;;;;;26.96;57.45;100225.94;7313359;19;129049;-38
2022/08/08 08:21:08;;;;;;;;;;;;;;;26.96;57.50;100226.72;7312024;19;129354;-32
2022/08/08 08:23:34;;;;;;;;;;;;;;;26.97;57.34;100222.28;7313728;19;129487;-39
2022/08/08 08:25:59;;;;;;;;;;;;;;;26.43;51.64;100215.53;7314984;19;129600;-38
2022/08/08 08:28:24;;;;;;;;;;;;;;;26.11;51.46;100216.19;7312262;19;129176;-35
2022/08/08 08:30:51;;;;;;;;;;;;;;;26.44;56.95;100223.31;7312128;19;129266;-38
2022/08/08 08:33:16;;;;;;;;;;;;;;;26.67;56.77;100226.28;7312697;19;129117;-35
2022/08/08 08:35:41;;;;;;;;;;;;;;;26.77;56.70;100221.72;7314069;19;129407;-34
2022/08/08 08:38:07;;;;;;;;;;;;;;;26.82;56.30;100228.16;7314109;19;129178;-37
2022/08/08 08:40:32;;;;;;;;;;;;;;;26.85;56.46;100235.78;7312056;19;128988;-34
2022/08/08 08:42:58;;;;;;;;;;;;;;;26.90;57.18;100237.94;7313270;19;129028;-33
2022/08/08 08:45:23;;;;;;;;;;;;;;;26.92;57.01;100236.78;7314069;19;129085;-37
2022/08/08 08:47:52;;;;;;;;;;;;;;;26.94;56.83;100234.81;7314454;19;129316;-33
2022/08/08 08:50:17;;;;;;;;;;;;;;;26.93;56.70;100237.59;7311616;19;129093;-33
2022/08/08 08:52:44;;;;;;;;;;;;;;;26.93;57.32;100235.81;7312505;19;129117;-38
2022/08/08 08:55:13;;;;;;;;;;;;;;;26.96;57.15;100233.84;7314459;19;129730;-33
2022/08/08 08:57:39;;;;;;;;;;;;;;;26.94;57.28;100240.09;7314038;19;128919;-33
2022/08/08 09:00:05;;;;;;;;;;;;;;;26.94;56.84;100234.81;7312432;19;129569;-33
2022/08/08 09:02:33;;;;;;;;;;;;;;;26.86;57.12;100221.59;7313341;19;129580;-33
2022/08/08 09:05:01;;;;;;;;;;;;;;;26.87;57.36;100215.31;7314824;19;129376;-39
2022/08/08 09:07:27;;;;;;;;;;;;;;;26.96;57.34;100233.84;7313499;19;129564;-33
2022/08/08 09:09:53;;;;;;;;;;;;;;;26.94;57.29;100245.38;7310759;19;129079;-34
2022/08/08 09:12:20;;;;;;;;;;;;;;;26.86;57.63;100226.03;7312619;19;129611;-36
2022/08/08 09:14:47;;;;;;;;;;;;;;;26.94;57.32;100240.09;7313493;19;129339;-33
2022/08/08 09:17:13;;;;;;;;;;;;;;;26.15;51.77;100237.75;7312962;19;128898;-33
2022/08/08 09:19:40;;;;;;;;;;;;;;;26.20;56.00;100223.16;7310735;19;129113;-34
2022/08/08 09:22:05;;;;;;;;;;;;;;;26.59;57.03;100234.94;7312175;19;130127;-35
2022/08/08 09:24:31;;;;;;;;;;;;;;;26.71;57.21;100228.44;7312871;19;130295;-33
2022/08/08 09:27:02;;;;;;;;;;;;;;;26.78;56.89;100232.09;7313008;19;129314;-33
2022/08/08 09:29:30;;;;;;;;;;;;;;;26.83;57.19;100231.63;7311719;19;129321;-32
2022/08/08 09:32:15;;;;;;;;;;;;;;;26.87;57.24;100227.69;7312590;19;129005;-36
2022/08/08 09:34:42;;;;;;;;;;;;;;;26.88;56.46;100232.81;7312967;19;130522;-35
2022/08/08 09:37:08;;;;;;;;;;;;;;;26.91;57.19;100229.00;7313296;19;128984;-38
2022/08/08 09:39:41;;;;;;;;;;;;;;;26.83;56.53;100216.63;7313179;19;129188;-36
2022/08/08 09:42:09;;;;;;;;;;;;;;;26.92;57.39;100234.13;7318213;19;130340;-32
2022/08/08 09:44:45;;;;;;;;;;;;;;;26.93;57.08;100234.97;7318943;19;129735;-38
2022/08/08 09:47:13;;;;;;;;;;;;;;;26.91;57.12;100226.38;7318573;19;129008;-38
2022/08/08 09:49:38;;;;;;;;;;;;;;;26.93;57.20;100238.44;7318346;19;129267;-32
2022/08/08 09:52:04;;;;;;;;;;;;;;;26.92;56.81;100235.97;7319128;19;129364;-36
2022/08/08 09:54:34;;;;;;;;;;;;;;;26.85;57.88;100214.66;7316518;19;129225;-35
2022/08/08 09:57:01;;;;;;;;;;;;;;;26.93;57.44;100230.53;7318059;19;129460;-33
2022/08/08 09:59:30;;;;;;;;;;;;;;;26.91;56.79;100215.81;7317789;19;129399;-38
2022/08/08 10:01:58;;;;;;;;;;;;;;;26.87;56.82;100212.66;7319016;19;129178;-38
2022/08/08 10:04:25;;;;;;;;;;;;;;;26.33;52.37;100213.03;7318638;19;129671;-34
2022/08/08 10:06:51;;;;;;;;;;;;;;;26.07;51.72;100222.72;7319280;19;129215;-36
2022/08/08 10:09:27;;;;;;;;;;;;;;;26.41;56.85;100220.16;7318359;19;128858;-36
2022/08/08 10:11:53;;;;;;;;;;;;;;;26.55;57.15;100207.22;7318572;19;132111;-34
2022/08/08 10:14:18;;;;;;;;;;;;;;;26.73;56.90;100215.91;7315730;19;129087;-34
2022/08/08 10:16:43;;;;;;;;;;;;;;;26.78;56.73;100218.91;7317694;19;128791;-36
2022/08/08 10:19:10;;;;;;;;;;;;;;;26.81;56.55;100221.22;7317159;19;129097;-37
2022/08/08 10:21:36;;;;;;;;;;;;;;;26.83;57.15;100211.34;7316055;19;129223;-34
2022/08/08 10:24:10;;;;;;;;;;;;;;;26.85;56.76;100219.94;7317852;19;129777;-34
2022/08/08 10:26:51;;;;;;;;;;;;;;;26.84;56.99;100218.28;7317893;19;128960;-38
2022/08/08 10:29:20;;;;;;;;;;;;;;;26.86;57.47;100216.31;7317209;19;129169;-36
2022/08/08 10:34:30;;;;;;;;;;;;;;;26.86;56.98;100213.66;7316844;19;129090;-37
2022/08/08 10:36:56;;;;;;;;;;;;;;;26.87;57.37;100215.31;7318762;19;129222;-34
2022/08/08 10:39:22;;;;;;;;;;;;;;;26.88;57.56;100211.69;7316728;19;128757;-33
2022/08/08 10:41:56;;;;;;;;;;;;;;;26.89;56.78;100210.69;7317345;19;129247;-32
2022/08/08 10:44:28;;;;;;;;;;;;;;;26.88;57.17;100213.50;7316716;19;130293;-39
2022/08/08 10:46:53;;;;;;;;;;;;;;;26.87;57.37;100202.13;7318171;19;129250;-39
2022/08/08 10:49:19;;;;;;;;;;;;;;;26.89;57.64;100199.34;7316861;19;129127;-37
2022/08/08 10:51:44;;;;;;;;;;;;;;;26.89;57.57;100200.16;7315900;19;129078;-36
2022/08/08 10:54:17;;;;;;;;;;;;;;;26.22;52.22;100201.91;7315176;19;130306;-33
2022/08/08 10:56:42;;;;;;;;;;;;;;;26.03;51.72;100184.47;7317460;19;129350;-37
2022/08/08 10:59:08;;;;;;;;;;;;;;;26.47;56.79;100186.09;7316483;19;128874;-35
2022/08/08 11:01:35;;;;;;;;;;;;;;;26.65;57.22;100186.88;7314371;19;129245;-35
2022/08/08 11:04:00;;;;;;;;;;;;;;;26.68;57.58;100167.25;7316645;19;129113;-35
2022/08/08 11:06:32;;;;;;;;;;;;;;;26.80;56.97;100179.19;7317059;19;129417;-38
2022/08/08 11:09:05;;;;;;;;;;;;;;;26.82;57.04;100183.28;7316438;19;129270;-33
2022/08/08 11:11:37;;;;;;;;;;;;;;;26.81;57.59;100192.22;7315346;19;129526;-34
2022/08/08 11:14:02;;;;;;;;;;;;;;;26.86;56.67;100191.72;7314146;19;130140;-36
2022/08/08 11:16:28;;;;;;;;;;;;;;;26.85;57.09;100183.00;7316036;19;128922;-37
2022/08/08 11:18:54;;;;;;;;;;;;;;;26.85;57.08;100193.56;7314316;19;129547;-37
2022/08/08 11:21:22;;;;;;;;;;;;;;;26.86;57.29;100194.34;7313946;19;129279;-32
2022/08/08 11:23:48;;;;;;;;;;;;;;;26.85;57.03;100193.56;7315413;19;129463;-33
2022/08/08 11:26:16;;;;;;;;;;;;;;;26.76;57.31;100162.00;7316689;19;128895;-36
2022/08/08 11:28:43;;;;;;;;;;;;;;;26.89;57.66;100184.31;7315698;19;128994;-39
2022/08/08 11:31:11;;;;;;;;;;;;;;;26.89;57.41;100189.59;7314302;19;129600;-32
2022/08/08 11:33:37;;;;;;;;;;;;;;;26.88;57.34;100182.69;7314243;19;130071;-34
2022/08/08 11:36:02;;;;;;;;;;;;;;;26.89;57.11;100183.50;7316295;19;129073;-34
2022/08/08 11:38:27;;;;;;;;;;;;;;;26.89;57.01;100173.75;7316519;19;128863;-39
2022/08/08 11:40:53;;;;;;;;;;;;;;;26.89;56.98;100179.03;7314246;19;129320;-36
2022/08/08 11:43:21;;;;;;;;;;;;;;;26.45;52.63;100179.31;7316615;19;129263;-34
2022/08/08 11:45:48;;;;;;;;;;;;;;;26.10;52.36;100174.16;7316312;19;129129;-36
2022/08/08 11:48:14;;;;;;;;;;;;;;;26.39;56.40;100169.41;7315447;19;129319;-39
2022/08/08 11:50:40;;;;;;;;;;;;;;;26.60;56.79;100168.03;7313708;19;129616;-32
2022/08/08 11:53:06;;;;;;;;;;;;;;;26.72;56.94;100166.78;7314160;19;130305;-34
2022/08/08 11:55:34;;;;;;;;;;;;;;;26.71;56.84;100165.13;7315048;19;129036;-38
2022/08/08 11:58:09;;;;;;;;;;;;;;;26.80;57.05;100174.72;7315606;19;129001;-40
2022/08/08 12:00:50;;;;;;;;;;;;;;;26.84;56.91;100175.25;7313752;19;132131;-39
2022/08/08 12:03:19;;;;;;;;;;;;;;;26.85;57.01;100180.38;7312864;19;129144;-35
2022/08/08 12:05:47;;;;;;;;;;;;;;;26.86;56.97;100179.38;7315288;19;129216;-33
2022/08/08 12:08:13;;;;;;;;;;;;;;;26.86;57.37;100174.09;7314292;19;129424;-38
2022/08/08 12:10:45;;;;;;;;;;;;;;;26.88;57.04;100166.00;7314695;19;129249;-36
2022/08/08 12:13:13;;;;;;;;;;;;;;;26.86;56.80;100163.53;7315045;19;130400;-33
2022/08/08 12:15:39;;;;;;;;;;;;;;;26.87;57.37;100162.53;7314635;19;128875;-36
2022/08/08 12:18:12;;;;;;;;;;;;;;;26.88;56.96;100166.84;7313246;19;129068;-34
2022/08/08 12:20:37;;;;;;;;;;;;;;;26.88;56.96;100173.94;7313803;19;128993;-35
2022/08/08 12:23:03;;;;;;;;;;;;;;;26.78;57.43;100154.75;7315520;19;129121;-37
2022/08/08 12:25:31;;;;;;;;;;;;;;;26.88;57.71;100174.75;7315376;19;129588;-33
2022/08/08 12:28:10;;;;;;;;;;;;;;;26.87;57.18;100162.53;7314722;19;128981;-34
2022/08/08 12:30:36;;;;;;;;;;;;;;;26.86;57.48;100155.63;7312699;19;131422;-34
2022/08/08 12:33:01;;;;;;;;;;;;;;;26.20;52.28;100154.63;7313933;19;129303;-41
2022/08/08 12:35:31;;;;;;;;;;;;;;;26.02;52.47;100153.84;7314877;19;128822;-33
2022/08/08 12:38:07;;;;;;;;;;;;;;;26.42;56.70;100154.09;7314235;19;128988;-36
2022/08/08 12:40:36;;;;;;;;;;;;;;;26.62;56.93;100160.78;7311925;19;130098;-36
2022/08/08 12:43:01;;;;;;;;;;;;;;;26.72;57.08;100161.53;7314205;19;129186;-36
2022/08/08 12:45:34;;;;;;;;;;;;;;;26.77;57.23;100164.50;7315390;19;129106;-36
2022/08/08 12:48:03;;;;;;;;;;;;;;;26.80;57.48;100158.91;7314747;19;128958;-40